createdAt,value
2022-11-17T00:01:59.592Z,1.90
2022-11-17T00:04:46.970Z,2.23
2022-11-17T00:07:34.256Z,1.90
2022-11-17T00:10:21.634Z,1.87
2022-11-17T00:13:29.522Z,2.13
2022-11-17T00:16:17.704Z,2.33
2022-11-17T00:19:23.941Z,2.20
2022-11-17T00:22:11.159Z,1.90
2022-11-17T00:24:58.409Z,1.83
2022-11-17T00:27:45.814Z,1.93
2022-11-17T00:30:51.894Z,1.80
2022-11-17T00:33:57.890Z,1.80
2022-11-17T00:36:46.405Z,1.80
2022-11-17T00:39:33.700Z,1.83
2022-11-17T00:42:20.940Z,1.70
2022-11-17T00:45:08.787Z,1.93
2022-11-17T00:47:56.185Z,1.43
2022-11-17T00:50:43.600Z,1.90
2022-11-17T00:53:31.295Z,2.20
2022-11-17T00:56:18.789Z,1.67
2022-11-17T00:59:06.331Z,2.30
2022-11-17T01:01:53.846Z,2.30
2022-11-17T01:04:41.183Z,2.13
2022-11-17T01:07:28.463Z,2.80
2022-11-17T01:10:15.866Z,2.57
2022-11-17T01:13:03.122Z,2.57
2022-11-17T01:15:50.536Z,2.10
2022-11-17T01:18:38.692Z,2.57
2022-11-17T01:21:27.088Z,2.10
2022-11-17T01:24:16.119Z,2.37
2022-11-17T01:27:03.579Z,2.83
2022-11-17T01:29:50.960Z,3.00
2022-11-17T01:32:38.371Z,3.37
2022-11-17T01:35:25.644Z,5.03
2022-11-17T01:38:13.055Z,2.70
2022-11-17T01:41:01.465Z,2.07
2022-11-17T01:43:59.179Z,2.00
2022-11-17T01:46:46.790Z,3.23
2022-11-17T01:49:34.200Z,3.00
2022-11-17T01:52:21.816Z,2.43
2022-11-17T01:55:10.269Z,2.33
2022-11-17T01:58:00.821Z,2.00
2022-11-17T02:00:48.428Z,2.70
2022-11-17T02:03:37.360Z,2.47
2022-11-17T02:06:28.546Z,2.40
2022-11-17T02:09:16.065Z,2.63
2022-11-17T02:12:03.749Z,2.50
2022-11-17T02:14:51.446Z,2.30
2022-11-17T02:17:40.114Z,2.20
2022-11-17T02:20:49.877Z,2.53
2022-11-17T02:23:57.569Z,2.20
2022-11-17T02:26:58.401Z,2.30
2022-11-17T02:30:02.594Z,2.40
2022-11-17T02:32:55.979Z,2.47
2022-11-17T02:35:51.108Z,2.80
2022-11-17T02:38:44.248Z,2.67
2022-11-17T02:41:36.940Z,2.73
2022-11-17T02:44:33.808Z,2.77
2022-11-17T02:47:24.424Z,2.53
2022-11-17T02:50:12.581Z,1.93
2022-11-17T02:53:00.527Z,2.10
2022-11-17T02:55:52.642Z,2.47
2022-11-17T02:58:40.534Z,1.90
2022-11-17T03:02:06.703Z,2.03
2022-11-17T03:05:17.431Z,1.90
2022-11-17T03:08:10.585Z,2.20
2022-11-17T03:11:00.574Z,1.90
2022-11-17T03:13:51.213Z,1.73
2022-11-17T03:16:47.737Z,1.60
2022-11-17T03:19:59.647Z,1.90
2022-11-17T03:22:52.588Z,1.70
2022-11-17T03:25:41.081Z,1.83
2022-11-17T03:28:30.514Z,2.00
2022-11-17T03:31:19.123Z,1.80
2022-11-17T03:34:09.932Z,1.60
2022-11-17T03:37:00.173Z,1.50
2022-11-17T03:39:50.935Z,1.40
2022-11-17T03:42:40.468Z,1.60
2022-11-17T03:45:32.288Z,1.40
2022-11-17T03:48:24.122Z,1.23
2022-11-17T03:51:24.081Z,1.40
2022-11-17T03:54:11.652Z,1.50
2022-11-17T03:57:06.369Z,1.40
2022-11-17T03:59:56.880Z,1.67
2022-11-17T04:02:45.368Z,1.20
2022-11-17T04:05:32.642Z,1.47
2022-11-17T04:08:20.643Z,1.60
2022-11-17T04:11:27.049Z,1.40
2022-11-17T04:14:33.175Z,1.50
2022-11-17T04:17:21.095Z,1.30
2022-11-17T04:20:04.909Z,1.77
2022-11-17T04:23:07.411Z,1.60
2022-11-17T04:26:15.003Z,1.47
2022-11-17T04:29:02.289Z,1.53
2022-11-17T04:31:50.039Z,1.33
2022-11-17T04:34:41.331Z,1.57
2022-11-17T04:37:28.828Z,1.93
2022-11-17T04:40:16.751Z,1.37
2022-11-17T04:43:08.166Z,1.37
2022-11-17T04:45:58.989Z,1.20
2022-11-17T04:48:47.992Z,1.07
2022-11-17T04:51:36.314Z,1.27
2022-11-17T04:54:27.618Z,1.30
2022-11-17T04:57:15.043Z,1.23
2022-11-17T05:00:02.355Z,1.27
2022-11-17T05:02:49.757Z,1.40
2022-11-17T05:05:37.574Z,1.10
2022-11-17T05:08:24.986Z,1.30
2022-11-17T05:11:32.492Z,1.00
2022-11-17T05:14:21.097Z,1.00
2022-11-17T05:17:12.043Z,1.23
2022-11-17T05:20:00.126Z,1.40
2022-11-17T05:23:07.072Z,1.30
2022-11-17T05:25:55.197Z,1.40
2022-11-17T05:28:42.923Z,1.70
2022-11-17T05:31:31.129Z,1.23
2022-11-17T05:34:18.987Z,1.70
2022-11-17T05:37:07.003Z,1.50
2022-11-17T05:39:54.420Z,1.47
2022-11-17T05:42:42.128Z,1.47
2022-11-17T05:45:29.918Z,1.40
2022-11-17T05:48:17.878Z,1.40
2022-11-17T05:51:06.261Z,1.33
2022-11-17T05:53:53.666Z,1.50
2022-11-17T05:56:45.261Z,1.40
2022-11-17T05:59:52.823Z,1.57
2022-11-17T06:02:46.290Z,1.73
2022-11-17T06:05:33.921Z,1.90
2022-11-17T06:08:21.924Z,1.63
2022-11-17T06:11:09.181Z,1.70
2022-11-17T06:13:56.887Z,2.00
2022-11-17T06:16:45.860Z,1.50
2022-11-17T06:19:37.614Z,1.70
2022-11-17T06:22:27.098Z,1.40
2022-11-17T06:25:14.491Z,1.93
2022-11-17T06:28:03.979Z,1.60
2022-11-17T06:30:51.558Z,1.70
2022-11-17T06:33:39.316Z,1.30
2022-11-17T06:36:26.596Z,1.60
2022-11-17T06:39:14.297Z,1.60
2022-11-17T06:42:02.037Z,1.67
2022-11-17T06:44:49.452Z,1.40
2022-11-17T06:47:36.843Z,1.53
2022-11-17T06:50:24.718Z,1.50
2022-11-17T06:53:12.913Z,2.30
2022-11-17T06:56:11.255Z,1.80
2022-11-17T06:58:59.049Z,2.60
2022-11-17T07:01:46.353Z,2.57
2022-11-17T07:04:33.737Z,2.30
2022-11-17T07:07:21.467Z,1.80
2022-11-17T07:10:09.444Z,1.70
2022-11-17T07:12:56.994Z,1.70
2022-11-17T07:15:44.866Z,1.63
2022-11-17T07:18:32.847Z,1.83
2022-11-17T07:21:22.324Z,1.87
2022-11-17T07:24:09.693Z,1.70
2022-11-17T07:26:57.079Z,1.70
2022-11-17T07:29:44.752Z,1.77
2022-11-17T07:32:33.346Z,1.70
2022-11-17T07:35:20.616Z,1.80
2022-11-17T07:38:08.312Z,1.70
2022-11-17T07:40:58.596Z,2.03
2022-11-17T07:43:46.025Z,2.30
2022-11-17T07:46:33.443Z,1.83
2022-11-17T07:49:20.715Z,1.57
2022-11-17T07:52:08.028Z,1.60
2022-11-17T07:54:55.426Z,2.10
2022-11-17T07:57:42.831Z,2.33
2022-11-17T08:00:31.637Z,2.10
2022-11-17T08:03:19.097Z,2.20
2022-11-17T08:06:07.769Z,2.07
2022-11-17T08:08:55.165Z,1.90
2022-11-17T08:11:43.025Z,2.10
2022-11-17T08:14:30.744Z,1.77
2022-11-17T08:17:18.592Z,2.00
2022-11-17T08:20:06.083Z,2.03
2022-11-17T08:22:54.280Z,1.97
2022-11-17T08:25:41.652Z,1.87
2022-11-17T08:28:29.009Z,1.33
2022-11-17T08:31:16.262Z,2.00
2022-11-17T08:34:04.173Z,1.60
2022-11-17T08:36:51.567Z,1.43
2022-11-17T08:39:39.011Z,1.60
2022-11-17T08:42:26.286Z,1.57
2022-11-17T08:45:13.981Z,2.70
2022-11-17T08:48:01.233Z,1.70
2022-11-17T08:50:49.573Z,1.83
2022-11-17T08:53:36.918Z,1.63
2022-11-17T08:56:24.744Z,1.67
2022-11-17T08:59:13.080Z,1.73
2022-11-17T09:02:00.828Z,1.73
2022-11-17T09:04:48.243Z,1.53
2022-11-17T09:07:36.242Z,1.20
2022-11-17T09:10:24.101Z,1.50
2022-11-17T09:13:14.818Z,1.50
2022-11-17T09:16:09.848Z,1.20
2022-11-17T09:18:58.304Z,1.10
2022-11-17T09:21:45.599Z,1.20
2022-11-17T09:24:32.918Z,1.17
2022-11-17T09:27:20.919Z,1.10
2022-11-17T09:30:08.469Z,1.30
2022-11-17T09:32:56.265Z,1.20
2022-11-17T09:35:44.104Z,1.60
2022-11-17T09:38:31.373Z,1.17
2022-11-17T09:41:22.367Z,0.97
2022-11-17T09:44:13.319Z,1.23
2022-11-17T09:47:00.750Z,1.30
2022-11-17T09:49:50.012Z,1.40
2022-11-17T09:52:43.900Z,1.30
2022-11-17T09:55:34.423Z,1.13
2022-11-17T09:58:31.687Z,1.40
2022-11-17T10:01:20.592Z,1.00
2022-11-17T10:04:12.966Z,1.50
2022-11-17T10:07:00.797Z,1.50
2022-11-17T10:09:50.919Z,1.20
2022-11-17T10:12:43.237Z,1.10
2022-11-17T10:15:34.007Z,0.98
2022-11-17T10:18:21.272Z,1.10
2022-11-17T10:21:09.952Z,1.50
2022-11-17T10:23:58.935Z,0.93
2022-11-17T10:26:48.194Z,0.90
2022-11-17T10:29:35.468Z,0.90
2022-11-17T10:32:23.168Z,0.80
2022-11-17T10:35:30.712Z,0.77
2022-11-17T10:38:21.802Z,0.82
2022-11-17T10:41:13.667Z,0.80
2022-11-17T10:44:02.917Z,0.90
2022-11-17T10:47:02.758Z,0.98
2022-11-17T10:50:06.095Z,0.80
2022-11-17T10:52:54.135Z,0.93
2022-11-17T10:55:42.117Z,0.93
2022-11-17T10:58:30.998Z,0.80
2022-11-17T11:01:27.940Z,1.10
2022-11-17T11:04:35.482Z,0.60
2022-11-17T11:07:23.818Z,0.88
2022-11-17T11:10:16.476Z,0.80
2022-11-17T11:13:36.771Z,0.57
2022-11-17T11:16:27.035Z,0.70
2022-11-17T11:19:16.369Z,0.80
2022-11-17T11:22:18.232Z,0.68
2022-11-17T11:25:14.744Z,0.98
2022-11-17T11:28:14.257Z,0.70
2022-11-17T11:31:06.843Z,1.10
2022-11-17T11:33:58.988Z,0.93
2022-11-17T11:36:54.887Z,0.70
2022-11-17T11:39:53.802Z,0.88
2022-11-17T11:42:47.255Z,0.75
2022-11-17T11:45:41.042Z,0.90
2022-11-17T11:48:33.706Z,1.05
2022-11-17T11:51:31.419Z,0.80
2022-11-17T11:54:32.895Z,1.08
2022-11-17T11:57:23.694Z,1.05
2022-11-17T12:00:15.508Z,0.70
2022-11-17T12:03:03.297Z,0.90
2022-11-17T12:06:22.018Z,1.23
2022-11-17T12:09:19.854Z,1.00
2022-11-17T12:12:08.763Z,1.00
2022-11-17T12:15:14.094Z,0.98
2022-11-17T12:18:01.346Z,0.82
2022-11-17T12:20:48.684Z,1.08
2022-11-17T12:23:35.988Z,1.40
2022-11-17T12:26:28.010Z,1.30
2022-11-17T12:29:22.104Z,1.00
2022-11-17T12:32:10.244Z,0.75
2022-11-17T12:35:16.417Z,0.90
2022-11-17T12:38:20.388Z,0.73
2022-11-17T12:41:07.702Z,1.00
2022-11-17T12:44:15.409Z,2.35
2022-11-17T12:47:12.458Z,1.02
2022-11-17T12:50:15.612Z,0.77
2022-11-17T12:53:18.712Z,0.95
2022-11-17T12:56:25.056Z,1.00
2022-11-17T12:59:26.307Z,0.70
2022-11-17T13:02:13.665Z,1.05
2022-11-17T13:05:00.860Z,0.90
2022-11-17T13:07:48.632Z,0.90
2022-11-17T13:10:35.949Z,0.90
2022-11-17T13:13:24.819Z,0.77
2022-11-17T13:16:18.622Z,1.20
2022-11-17T13:19:26.372Z,1.27
2022-11-17T13:22:13.789Z,0.90
2022-11-17T13:25:13.300Z,0.70
2022-11-17T13:28:04.686Z,0.90
2022-11-17T13:30:53.104Z,0.70
2022-11-17T13:33:40.832Z,0.80
2022-11-17T13:36:28.592Z,1.00
2022-11-17T13:39:19.674Z,1.07
2022-11-17T13:42:10.896Z,1.20
2022-11-17T13:44:59.336Z,1.00
2022-11-17T13:47:47.981Z,1.00
2022-11-17T13:50:37.251Z,1.08
2022-11-17T13:53:26.142Z,1.35
2022-11-17T13:56:23.730Z,1.45
2022-11-17T13:59:19.683Z,1.15
2022-11-17T14:02:25.765Z,1.55
2022-11-17T14:05:17.655Z,1.50
2022-11-17T14:08:12.575Z,0.95
2022-11-17T14:11:06.054Z,0.90
2022-11-17T14:13:53.972Z,1.48
2022-11-17T14:16:42.578Z,1.15
2022-11-17T14:19:33.446Z,1.20
2022-11-17T14:22:31.430Z,1.48
2022-11-17T14:25:19.754Z,1.60
2022-11-17T14:28:20.725Z,1.50
2022-11-17T14:31:12.434Z,1.30
2022-11-17T14:33:59.812Z,1.33
2022-11-17T14:36:48.833Z,1.27
2022-11-17T14:39:36.270Z,1.23
2022-11-17T14:42:24.332Z,1.13
2022-11-17T14:45:19.530Z,1.17
2022-11-17T14:48:07.562Z,1.43
2022-11-17T14:50:59.224Z,1.50
2022-11-17T14:53:47.519Z,1.20
2022-11-17T14:56:34.881Z,1.20
2022-11-17T14:59:22.594Z,1.43
2022-11-17T15:02:10.675Z,1.17
2022-11-17T15:05:00.451Z,1.10
2022-11-17T15:07:50.766Z,1.15
2022-11-17T15:10:43.113Z,1.23
2022-11-17T15:13:30.678Z,1.00
2022-11-17T15:16:18.550Z,0.95
2022-11-17T15:19:07.003Z,1.30
2022-11-17T15:21:54.793Z,1.00
2022-11-17T15:24:42.262Z,1.37
2022-11-17T15:27:30.195Z,1.50
2022-11-17T15:30:17.737Z,1.40
2022-11-17T15:33:05.691Z,2.13
2022-11-17T15:36:03.021Z,1.00
2022-11-17T15:38:51.260Z,1.43
2022-11-17T15:41:38.542Z,1.60
2022-11-17T15:44:26.123Z,1.67
2022-11-17T15:47:13.881Z,1.90
2022-11-17T15:50:01.268Z,1.83
2022-11-17T15:53:03.475Z,2.70
2022-11-17T15:55:52.009Z,2.33
2022-11-17T15:58:40.085Z,1.87
2022-11-17T16:01:29.218Z,2.50
2022-11-17T16:04:17.384Z,3.13
2022-11-17T16:07:04.908Z,2.53
2022-11-17T16:09:53.412Z,1.70
2022-11-17T16:12:40.726Z,2.10
2022-11-17T16:15:28.743Z,1.50
2022-11-17T16:18:16.752Z,2.17
2022-11-17T16:21:05.419Z,1.87
2022-11-17T16:23:55.147Z,1.73
2022-11-17T16:26:43.219Z,3.10
2022-11-17T16:29:31.168Z,2.77
2022-11-17T16:32:19.024Z,3.10
2022-11-17T16:35:06.424Z,3.37
2022-11-17T16:37:54.144Z,4.00
2022-11-17T16:40:41.458Z,3.07
2022-11-17T16:43:29.440Z,2.90
2022-11-17T16:46:17.172Z,3.23
2022-11-17T16:49:06.321Z,2.70
2022-11-17T16:51:54.116Z,2.97
2022-11-17T16:54:42.496Z,2.80
2022-11-17T16:57:30.600Z,3.13
2022-11-17T17:00:18.164Z,3.30
2022-11-17T17:03:05.972Z,3.80
2022-11-17T17:05:53.890Z,3.83
2022-11-17T17:08:41.578Z,4.20
2022-11-17T17:11:32.166Z,3.67
2022-11-17T17:14:19.978Z,3.53
2022-11-17T17:17:07.353Z,3.57
2022-11-17T17:19:55.284Z,4.27
2022-11-17T17:22:42.588Z,3.23
2022-11-17T17:25:30.375Z,3.20
2022-11-17T17:28:18.108Z,3.80
2022-11-17T17:31:05.863Z,3.20
2022-11-17T17:33:53.574Z,4.60
2022-11-17T17:36:40.867Z,3.70
2022-11-17T17:39:28.629Z,3.43
2022-11-17T17:42:16.456Z,3.20
2022-11-17T17:45:04.417Z,3.97
2022-11-17T17:47:51.710Z,4.27
2022-11-17T17:50:40.576Z,4.83
2022-11-17T17:53:27.836Z,3.93
2022-11-17T17:56:15.740Z,3.63
2022-11-17T17:59:03.161Z,3.43
2022-11-17T18:01:51.424Z,3.60
2022-11-17T18:04:38.835Z,3.33
2022-11-17T18:07:26.637Z,3.73
2022-11-17T18:10:13.859Z,3.30
2022-11-17T18:13:03.173Z,3.50
2022-11-17T18:15:53.696Z,3.63
2022-11-17T18:18:41.349Z,3.67
2022-11-17T18:21:28.787Z,4.00
2022-11-17T18:24:16.449Z,3.40
2022-11-17T18:27:03.695Z,4.17
2022-11-17T18:29:51.426Z,4.57
2022-11-17T18:32:38.624Z,4.40
2022-11-17T18:35:27.138Z,4.80
2022-11-17T18:38:14.454Z,4.13
2022-11-17T18:41:02.820Z,4.87
2022-11-17T18:43:52.481Z,5.00
2022-11-17T18:46:39.754Z,5.20
2022-11-17T18:49:27.495Z,4.90
2022-11-17T18:52:15.390Z,5.23
2022-11-17T18:55:03.639Z,4.77
2022-11-17T18:57:51.452Z,4.70
2022-11-17T19:00:38.819Z,5.10
2022-11-17T19:03:26.636Z,4.33
2022-11-17T19:06:14.523Z,4.50
2022-11-17T19:09:02.754Z,5.10
2022-11-17T19:11:50.060Z,3.80
2022-11-17T19:14:37.354Z,4.87
2022-11-17T19:17:24.656Z,3.97
2022-11-17T19:20:13.396Z,3.87
2022-11-17T19:23:01.270Z,3.90
2022-11-17T19:25:48.448Z,4.07
2022-11-17T19:28:36.098Z,3.57
2022-11-17T19:31:23.850Z,4.23
2022-11-17T19:34:11.357Z,3.47
2022-11-17T19:36:59.093Z,3.60
2022-11-17T19:39:46.412Z,3.33
2022-11-17T19:42:34.256Z,4.37
2022-11-17T19:45:21.558Z,3.70
2022-11-17T19:48:09.364Z,3.90
2022-11-17T19:50:57.197Z,3.10
2022-11-17T19:53:44.940Z,3.17
2022-11-17T19:56:32.213Z,3.17
2022-11-17T19:59:19.732Z,3.90
2022-11-17T20:02:07.369Z,4.17
2022-11-17T20:04:55.161Z,4.40
2022-11-17T20:07:42.532Z,4.07
2022-11-17T20:10:29.936Z,3.80
2022-11-17T20:13:17.229Z,3.80
2022-11-17T20:16:11.458Z,3.73
2022-11-17T20:19:03.128Z,3.47
2022-11-17T20:21:50.312Z,3.67
2022-11-17T20:24:38.325Z,3.23
2022-11-17T20:27:26.277Z,2.90
2022-11-17T20:30:15.310Z,2.77
2022-11-17T20:33:02.845Z,2.50
2022-11-17T20:35:50.613Z,2.80
2022-11-17T20:38:37.915Z,3.07
2022-11-17T20:41:25.556Z,2.70
2022-11-17T20:44:23.799Z,2.60
2022-11-17T20:47:11.780Z,2.80
2022-11-17T20:49:59.170Z,2.80
2022-11-17T20:52:46.844Z,3.07
2022-11-17T20:55:34.605Z,3.37
2022-11-17T20:58:21.946Z,3.07
2022-11-17T21:01:11.685Z,3.30
2022-11-17T21:03:59.104Z,3.00
2022-11-17T21:06:46.454Z,2.70
2022-11-17T21:09:33.727Z,2.90
2022-11-17T21:12:21.508Z,2.43
2022-11-17T21:15:08.964Z,3.03
2022-11-17T21:18:14.953Z,2.90
2022-11-17T21:21:04.638Z,2.90
2022-11-17T21:23:55.940Z,2.17
2022-11-17T21:26:43.688Z,2.43
2022-11-17T21:29:32.951Z,2.43
2022-11-17T21:32:20.410Z,2.67
2022-11-17T21:35:07.835Z,2.40
2022-11-17T21:37:56.056Z,1.93
2022-11-17T21:40:43.367Z,1.80
2022-11-17T21:43:30.776Z,1.60
2022-11-17T21:46:26.266Z,1.50
2022-11-17T21:49:14.220Z,1.63
2022-11-17T21:52:02.327Z,1.60
2022-11-17T21:54:49.645Z,1.50
2022-11-17T21:57:38.197Z,1.87
2022-11-17T22:00:28.163Z,2.13
2022-11-17T22:03:16.133Z,1.80
2022-11-17T22:06:14.849Z,2.13
2022-11-17T22:09:02.166Z,1.67
2022-11-17T22:11:51.819Z,2.50
2022-11-17T22:14:39.108Z,2.80
2022-11-17T22:17:26.934Z,2.50
2022-11-17T22:20:14.240Z,1.77
2022-11-17T22:23:02.062Z,1.70
2022-11-17T22:25:56.995Z,1.90
2022-11-17T22:28:44.418Z,2.13
2022-11-17T22:31:32.033Z,1.90
2022-11-17T22:34:19.812Z,1.47
2022-11-17T22:37:07.652Z,1.70
2022-11-17T22:39:55.546Z,1.40
2022-11-17T22:42:42.867Z,1.73
2022-11-17T22:45:30.818Z,1.30
2022-11-17T22:48:18.235Z,1.40
2022-11-17T22:51:06.472Z,1.47
2022-11-17T22:53:53.723Z,1.63
2022-11-17T22:56:41.707Z,2.00
2022-11-17T22:59:29.959Z,1.70
2022-11-17T23:02:17.410Z,1.20
2022-11-17T23:05:04.843Z,1.27
2022-11-17T23:07:52.630Z,1.30
2022-11-17T23:10:40.432Z,1.43
2022-11-17T23:13:28.515Z,1.20
2022-11-17T23:16:16.035Z,1.20
2022-11-17T23:19:04.530Z,0.90
2022-11-17T23:21:52.282Z,1.10
2022-11-17T23:24:39.684Z,1.10
2022-11-17T23:27:27.561Z,1.50
2022-11-17T23:30:14.862Z,1.00
2022-11-17T23:33:02.812Z,0.90
2022-11-17T23:35:50.126Z,0.93
2022-11-17T23:38:38.034Z,0.90
2022-11-17T23:41:25.865Z,0.70
2022-11-17T23:44:13.819Z,0.90
2022-11-17T23:47:01.089Z,0.90
2022-11-17T23:49:48.852Z,0.93
2022-11-17T23:52:36.153Z,0.53
2022-11-17T23:55:23.935Z,0.80
2022-11-17T23:58:11.272Z,0.67
